createdAt,value
2022-10-18T00:01:12.936Z,101444.75
2022-10-18T00:03:40.864Z,101450.75
2022-10-18T00:06:14.470Z,101442.75
2022-10-18T00:08:42.339Z,101442.75
2022-10-18T00:11:10.254Z,101438.28
2022-10-18T00:13:38.980Z,101439.41
2022-10-18T00:16:13.369Z,101440.22
2022-10-18T00:18:42.146Z,101438.28
2022-10-18T00:21:16.089Z,101444.44
2022-10-18T00:23:44.723Z,101450.91
2022-10-18T00:26:15.744Z,101447.41
2022-10-18T00:28:45.303Z,101443.75
2022-10-18T00:31:17.622Z,101442.75
2022-10-18T00:33:47.150Z,101446.72
2022-10-18T00:36:15.818Z,101452.75
2022-10-18T00:38:44.479Z,101444.75
2022-10-18T00:41:15.079Z,101442.91
2022-10-18T00:43:54.772Z,101444.59
2022-10-18T00:46:25.737Z,101434.09
2022-10-18T00:48:56.496Z,101431.28
2022-10-18T00:51:26.597Z,101437.31
2022-10-18T00:53:54.503Z,101432.09
2022-10-18T00:56:22.682Z,101435.63
2022-10-18T00:58:52.044Z,101427.47
2022-10-18T01:01:22.271Z,101428.19
2022-10-18T01:03:55.133Z,101425.53
2022-10-18T01:06:26.041Z,101422.97
2022-10-18T01:09:06.349Z,101421.19
2022-10-18T01:11:51.398Z,101418.78
2022-10-18T01:14:32.451Z,101414.28
2022-10-18T01:17:05.001Z,101410.91
2022-10-18T01:20:14.282Z,101411.06
2022-10-18T01:22:46.674Z,101406.00
2022-10-18T01:25:30.762Z,101402.38
2022-10-18T01:28:05.780Z,101420.06
2022-10-18T01:30:40.123Z,101412.06
2022-10-18T01:33:16.129Z,101413.75
2022-10-18T01:35:50.399Z,101407.56
2022-10-18T01:38:20.978Z,101411.91
2022-10-18T01:40:52.228Z,101406.44
2022-10-18T01:43:22.633Z,101408.13
2022-10-18T01:45:54.734Z,101406.13
2022-10-18T01:48:23.404Z,101402.66
2022-10-18T01:50:51.285Z,101399.00
2022-10-18T01:53:32.968Z,101402.34
2022-10-18T01:56:28.534Z,101397.44
2022-10-18T01:59:04.151Z,101398.31
2022-10-18T02:01:42.206Z,101395.63
2022-10-18T02:04:21.842Z,101392.81
2022-10-18T02:06:57.308Z,101392.00
2022-10-18T02:09:32.972Z,101397.19
2022-10-18T02:12:03.775Z,101384.69
2022-10-18T02:14:33.132Z,101388.47
2022-10-18T02:17:07.160Z,101383.31
2022-10-18T02:19:39.606Z,101389.31
2022-10-18T02:22:09.503Z,101383.13
2022-10-18T02:24:40.545Z,101385.13
2022-10-18T02:27:08.856Z,101389.47
2022-10-18T02:29:37.308Z,101386.78
2022-10-18T02:32:12.033Z,101385.13
2022-10-18T02:34:44.578Z,101382.44
2022-10-18T02:37:13.037Z,101379.66
2022-10-18T02:39:45.744Z,101384.00
2022-10-18T02:42:15.103Z,101389.47
2022-10-18T02:44:43.180Z,101376.97
2022-10-18T02:47:13.576Z,101378.78
2022-10-18T02:49:41.601Z,101371.66
2022-10-18T02:52:09.437Z,101370.78
2022-10-18T02:54:37.380Z,101376.13
2022-10-18T02:57:07.364Z,101377.13
2022-10-18T02:59:35.183Z,101365.91
2022-10-18T03:02:03.033Z,101365.03
2022-10-18T03:04:32.284Z,101365.03
2022-10-18T03:07:00.247Z,101355.69
2022-10-18T03:09:28.282Z,101371.94
2022-10-18T03:11:56.174Z,101363.25
2022-10-18T03:14:24.080Z,101372.09
2022-10-18T03:16:54.068Z,101374.75
2022-10-18T03:19:21.961Z,101374.22
2022-10-18T03:21:51.219Z,101365.63
2022-10-18T03:24:19.198Z,101363.94
2022-10-18T03:26:47.263Z,101366.06
2022-10-18T03:29:15.183Z,101376.00
2022-10-18T03:31:43.311Z,101384.84
2022-10-18T03:34:11.211Z,101385.97
2022-10-18T03:36:42.184Z,101381.75
2022-10-18T03:39:12.535Z,101378.28
2022-10-18T03:41:40.423Z,101388.19
2022-10-18T03:44:08.443Z,101396.19
2022-10-18T03:46:36.246Z,101407.84
2022-10-18T03:49:04.183Z,101410.25
2022-10-18T03:51:32.063Z,101416.56
2022-10-18T03:53:59.946Z,101441.22
2022-10-18T03:56:29.428Z,101449.47
2022-10-18T03:58:58.107Z,101459.03
2022-10-18T04:01:26.062Z,101469.56
2022-10-18T04:03:56.359Z,101487.38
2022-10-18T04:06:24.276Z,101496.63
2022-10-18T04:08:52.147Z,101493.16
2022-10-18T04:11:22.394Z,101481.06
2022-10-18T04:13:51.725Z,101476.16
2022-10-18T04:16:19.713Z,101464.66
2022-10-18T04:18:47.580Z,101448.38
2022-10-18T04:21:15.660Z,101439.41
2022-10-18T04:23:48.739Z,101435.06
2022-10-18T04:26:17.458Z,101441.94
2022-10-18T04:28:45.685Z,101427.63
2022-10-18T04:31:15.048Z,101417.78
2022-10-18T04:33:43.655Z,101408.97
2022-10-18T04:36:11.907Z,101406.44
2022-10-18T04:38:39.769Z,101403.78
2022-10-18T04:41:09.887Z,101403.66
2022-10-18T04:43:37.833Z,101400.13
2022-10-18T04:46:05.709Z,101413.31
2022-10-18T04:48:37.372Z,101449.78
2022-10-18T04:51:08.247Z,101475.59
2022-10-18T04:53:36.142Z,101516.16
2022-10-18T04:56:04.027Z,101488.50
2022-10-18T04:58:32.211Z,101485.16
2022-10-18T05:01:00.083Z,101482.19
2022-10-18T05:03:27.987Z,101474.63
2022-10-18T05:06:01.918Z,101470.28
2022-10-18T05:08:34.968Z,101464.09
2022-10-18T05:11:03.647Z,101463.53
2022-10-18T05:13:31.851Z,101459.88
2022-10-18T05:16:00.747Z,101459.06
2022-10-18T05:18:28.698Z,101453.03
2022-10-18T05:20:58.048Z,101451.31
2022-10-18T05:23:26.489Z,101454.00
2022-10-18T05:25:54.914Z,101442.63
2022-10-18T05:29:14.290Z,101444.56
2022-10-18T05:31:42.390Z,101443.72
2022-10-18T05:34:10.374Z,101437.69
2022-10-18T05:36:39.517Z,101435.03
2022-10-18T05:39:07.754Z,101439.38
2022-10-18T05:41:35.707Z,101430.69
2022-10-18T05:44:07.648Z,101430.81
2022-10-18T05:46:37.997Z,101430.00
2022-10-18T05:49:05.917Z,101435.47
2022-10-18T05:51:33.866Z,101430.13
2022-10-18T05:54:06.204Z,101422.97
2022-10-18T05:56:34.466Z,101414.16
2022-10-18T05:59:04.917Z,101409.66
2022-10-18T06:01:32.900Z,101409.66
2022-10-18T06:04:03.365Z,101404.31
2022-10-18T06:06:32.463Z,101403.50
2022-10-18T06:09:00.401Z,101404.88
2022-10-18T06:11:29.954Z,101409.09
2022-10-18T06:14:00.112Z,101416.00
2022-10-18T06:16:32.262Z,101414.19
2022-10-18T06:19:00.826Z,101419.22
2022-10-18T06:21:28.679Z,101420.19
2022-10-18T06:24:00.054Z,101422.72
2022-10-18T06:26:29.884Z,101426.22
2022-10-18T06:28:57.859Z,101425.22
2022-10-18T06:31:25.869Z,101433.94
2022-10-18T06:33:53.778Z,101466.75
2022-10-18T06:36:22.945Z,101477.28
2022-10-18T06:38:51.613Z,101441.38
2022-10-18T06:41:20.408Z,101446.97
2022-10-18T06:43:50.821Z,101451.50
2022-10-18T06:46:18.680Z,101441.66
2022-10-18T06:48:47.412Z,101453.28
2022-10-18T06:51:15.306Z,101449.66
2022-10-18T06:53:48.555Z,101455.81
2022-10-18T06:56:21.222Z,101462.16
2022-10-18T06:58:50.529Z,101464.66
2022-10-18T07:01:21.603Z,101465.50
2022-10-18T07:03:50.614Z,101468.03
2022-10-18T07:06:19.808Z,101467.88
2022-10-18T07:08:48.840Z,101470.53
2022-10-18T07:11:18.693Z,101480.09
2022-10-18T07:13:46.767Z,101496.06
2022-10-18T07:16:18.933Z,101503.09
2022-10-18T07:18:48.424Z,101512.75
2022-10-18T07:21:18.037Z,101523.03
2022-10-18T07:23:47.125Z,101520.75
2022-10-18T07:26:17.097Z,101527.50
2022-10-18T07:28:50.455Z,101532.84
2022-10-18T07:31:19.635Z,101523.59
2022-10-18T07:33:47.736Z,101524.72
2022-10-18T07:36:15.577Z,101516.84
2022-10-18T07:38:45.636Z,101519.38
2022-10-18T07:41:14.725Z,101521.75
2022-10-18T07:43:45.767Z,101520.63
2022-10-18T07:46:14.792Z,101516.00
2022-10-18T07:48:44.066Z,101517.53
2022-10-18T07:51:12.562Z,101507.44
2022-10-18T07:53:40.719Z,101513.06
2022-10-18T07:56:11.878Z,101514.28
2022-10-18T07:58:39.802Z,101521.56
2022-10-18T08:01:09.504Z,101538.56
2022-10-18T08:03:38.467Z,101539.00
2022-10-18T08:06:09.645Z,101533.34
2022-10-18T08:08:38.693Z,101540.09
2022-10-18T08:11:08.705Z,101538.28
2022-10-18T08:13:37.501Z,101530.84
2022-10-18T08:16:07.838Z,101529.56
2022-10-18T08:18:36.560Z,101537.13
2022-10-18T08:21:10.407Z,101528.41
2022-10-18T08:23:39.195Z,101519.66
2022-10-18T08:26:10.937Z,101523.34
2022-10-18T08:28:39.418Z,101524.59
2022-10-18T08:31:08.884Z,101518.31
2022-10-18T08:33:36.919Z,101515.06
2022-10-18T08:36:06.706Z,101521.50
2022-10-18T08:38:37.659Z,101532.56
2022-10-18T08:41:33.769Z,101534.66
2022-10-18T08:44:08.269Z,101540.22
2022-10-18T08:46:38.489Z,101548.09
2022-10-18T08:49:08.058Z,101552.50
2022-10-18T08:51:41.035Z,101559.53
2022-10-18T08:54:14.670Z,101559.38
2022-10-18T08:56:46.654Z,101556.88
2022-10-18T08:59:15.176Z,101557.41
2022-10-18T09:01:54.581Z,101567.47
2022-10-18T09:04:39.174Z,101562.56
2022-10-18T09:07:22.917Z,101560.97
2022-10-18T09:09:59.684Z,101551.38
2022-10-18T09:12:43.671Z,101555.00
2022-10-18T09:15:17.955Z,101557.09
2022-10-18T09:18:05.092Z,101567.72
2022-10-18T09:20:45.415Z,101558.53
2022-10-18T09:23:21.164Z,101556.88
2022-10-18T09:25:55.350Z,101561.94
2022-10-18T09:28:34.414Z,101562.75
2022-10-18T09:31:08.328Z,101559.59
2022-10-18T09:33:44.798Z,101569.03
2022-10-18T09:36:20.318Z,101571.53
2022-10-18T09:38:52.611Z,101571.38
2022-10-18T09:41:26.766Z,101568.44
2022-10-18T09:43:59.085Z,101570.47
2022-10-18T09:46:32.317Z,101577.06
2022-10-18T09:49:05.256Z,101578.16
2022-10-18T09:51:37.967Z,101573.69
2022-10-18T09:54:22.996Z,101578.75
2022-10-18T09:56:58.405Z,101574.69
2022-10-18T09:59:38.779Z,101574.09
2022-10-18T10:02:07.958Z,101575.16
2022-10-18T10:04:35.709Z,101581.88
2022-10-18T10:07:07.704Z,101578.28
2022-10-18T10:09:42.738Z,101574.38
2022-10-18T10:12:27.570Z,101579.22
2022-10-18T10:14:55.439Z,101573.28
2022-10-18T10:17:26.009Z,101573.16
2022-10-18T10:19:59.891Z,101575.41
2022-10-18T10:22:33.011Z,101580.63
2022-10-18T10:25:03.615Z,101575.25
2022-10-18T10:27:40.952Z,101577.56
2022-10-18T10:30:24.673Z,101587.34
2022-10-18T10:32:53.736Z,101582.63
2022-10-18T10:35:41.475Z,101587.50
2022-10-18T10:38:24.809Z,101583.69
2022-10-18T10:40:52.989Z,101586.69
2022-10-18T10:43:37.097Z,101585.97
2022-10-18T10:46:09.631Z,101593.00
2022-10-18T10:48:46.490Z,101583.69
2022-10-18T10:51:15.215Z,101578.84
2022-10-18T10:53:50.157Z,101582.81
2022-10-18T10:56:23.080Z,101585.06
2022-10-18T10:58:54.383Z,101581.09
2022-10-18T11:01:28.878Z,101587.72
2022-10-18T11:03:59.419Z,101585.09
2022-10-18T11:06:36.790Z,101584.91
2022-10-18T11:09:11.135Z,101588.78
2022-10-18T11:11:46.772Z,101591.72
2022-10-18T11:14:26.900Z,101591.56
2022-10-18T11:17:07.742Z,101592.91
2022-10-18T11:19:45.880Z,101591.22
2022-10-18T11:22:17.538Z,101589.38
2022-10-18T11:24:45.993Z,101594.34
2022-10-18T11:27:21.657Z,101593.78
2022-10-18T11:30:03.700Z,101578.69
2022-10-18T11:32:41.295Z,101581.06
2022-10-18T11:35:27.549Z,101580.09
2022-10-18T11:38:11.006Z,101584.81
2022-10-18T11:40:52.641Z,101586.84
2022-10-18T11:43:30.344Z,101587.50
2022-10-18T11:46:13.390Z,101583.53
2022-10-18T11:49:08.495Z,101583.88
2022-10-18T11:52:07.324Z,101586.25
2022-10-18T11:54:59.009Z,101583.13
2022-10-18T11:57:41.803Z,101575.22
2022-10-18T12:00:20.479Z,101583.28
2022-10-18T12:03:00.884Z,101579.94
2022-10-18T12:05:30.596Z,101584.66
2022-10-18T12:08:03.313Z,101578.69
2022-10-18T12:10:44.435Z,101581.72
2022-10-18T12:13:29.815Z,101587.28
2022-10-18T12:15:58.471Z,101572.06
2022-10-18T12:18:31.617Z,101563.22
2022-10-18T12:21:00.937Z,101572.47
2022-10-18T12:23:38.961Z,101567.31
2022-10-18T12:26:09.138Z,101566.19
2022-10-18T12:28:47.867Z,101565.38
2022-10-18T12:31:23.148Z,101565.88
2022-10-18T12:33:56.579Z,101547.06
2022-10-18T12:36:42.539Z,101554.78
2022-10-18T12:39:19.243Z,101548.72
2022-10-18T12:41:57.305Z,101543.47
2022-10-18T12:44:31.418Z,101541.25
2022-10-18T12:47:01.758Z,101544.56
2022-10-18T12:49:34.134Z,101545.09
2022-10-18T12:52:04.807Z,101550.69
2022-10-18T12:54:35.879Z,101545.69
2022-10-18T12:57:06.150Z,101538.66
2022-10-18T12:59:52.114Z,101538.84
2022-10-18T13:02:32.434Z,101542.69
2022-10-18T13:05:02.457Z,101543.78
2022-10-18T13:07:40.800Z,101536.50
2022-10-18T13:10:42.413Z,101535.34
2022-10-18T13:13:40.638Z,101527.63
2022-10-18T13:16:38.669Z,101523.25
2022-10-18T13:19:32.742Z,101527.31
2022-10-18T13:22:15.928Z,101528.03
2022-10-18T13:24:47.402Z,101542.09
2022-10-18T13:27:37.032Z,101532.94
2022-10-18T13:30:26.402Z,101543.25
2022-10-18T13:32:59.938Z,101548.13
2022-10-18T13:35:47.426Z,101543.41
2022-10-18T13:38:33.781Z,101535.66
2022-10-18T13:41:03.452Z,101528.38
2022-10-18T13:44:24.329Z,101538.84
2022-10-18T13:47:11.580Z,101535.84
2022-10-18T13:49:57.150Z,101535.63
2022-10-18T13:52:38.739Z,101528.97
2022-10-18T13:55:33.545Z,101529.47
2022-10-18T13:58:10.994Z,101528.06
2022-10-18T14:00:52.831Z,101536.34
2022-10-18T14:04:09.344Z,101536.34
2022-10-18T14:06:41.308Z,101539.09
2022-10-18T14:09:26.289Z,101530.84
2022-10-18T14:12:22.229Z,101541.16
2022-10-18T14:14:55.540Z,101538.31
2022-10-18T14:17:31.399Z,101539.13
2022-10-18T14:20:13.046Z,101545.81
2022-10-18T14:22:46.804Z,101543.69
2022-10-18T14:25:22.482Z,101542.84
2022-10-18T14:28:06.922Z,101539.28
2022-10-18T14:30:37.076Z,101543.59
2022-10-18T14:33:05.432Z,101538.03
2022-10-18T14:35:35.238Z,101545.03
2022-10-18T14:38:04.420Z,101540.50
2022-10-18T14:40:36.350Z,101543.41
2022-10-18T14:43:13.082Z,101553.81
2022-10-18T14:45:41.865Z,101554.78
2022-10-18T14:48:16.809Z,101549.56
2022-10-18T14:50:47.274Z,101557.06
2022-10-18T14:53:18.864Z,101555.47
2022-10-18T14:55:55.728Z,101556.06
2022-10-18T14:58:25.468Z,101548.59
2022-10-18T15:00:54.624Z,101559.25
2022-10-18T15:03:22.999Z,101553.06
2022-10-18T15:05:57.014Z,101553.66
2022-10-18T15:08:27.948Z,101561.59
2022-10-18T15:10:56.586Z,101556.09
2022-10-18T15:13:26.505Z,101552.91
2022-10-18T15:15:55.317Z,101550.09
2022-10-18T15:18:25.584Z,101556.63
2022-10-18T15:21:22.080Z,101555.63
2022-10-18T15:23:50.181Z,101556.31
2022-10-18T15:26:24.088Z,101557.81
2022-10-18T15:29:00.454Z,101558.34
2022-10-18T15:31:35.576Z,101562.03
2022-10-18T15:34:12.189Z,101574.75
2022-10-18T15:36:40.315Z,101568.06
2022-10-18T15:39:09.652Z,101566.66
2022-10-18T15:41:40.566Z,101566.16
2022-10-18T15:44:21.251Z,101575.50
2022-10-18T15:46:53.851Z,101574.13
2022-10-18T15:49:50.890Z,101579.78
2022-10-18T15:52:42.362Z,101582.06
2022-10-18T15:55:56.513Z,101577.53
2022-10-18T15:58:26.412Z,101571.22
2022-10-18T16:00:59.443Z,101581.72
2022-10-18T16:03:28.673Z,101586.88
2022-10-18T16:06:00.309Z,101582.47
2022-10-18T16:08:30.439Z,101575.56
2022-10-18T16:10:59.714Z,101577.47
2022-10-18T16:13:27.879Z,101581.25
2022-10-18T16:15:57.309Z,101575.31
2022-10-18T16:18:26.041Z,101574.53
2022-10-18T16:20:54.158Z,101578.28
2022-10-18T16:23:23.889Z,101584.56
2022-10-18T16:25:52.200Z,101583.63
2022-10-18T16:28:22.648Z,101580.88
2022-10-18T16:30:55.714Z,101590.97
2022-10-18T16:33:25.240Z,101597.38
2022-10-18T16:35:54.050Z,101600.94
2022-10-18T16:38:31.092Z,101592.00
2022-10-18T16:41:02.192Z,101592.88
2022-10-18T16:43:30.155Z,101600.75
2022-10-18T16:45:58.173Z,101600.66
2022-10-18T16:48:28.552Z,101604.91
2022-10-18T16:50:59.124Z,101606.50
2022-10-18T16:53:27.970Z,101606.38
2022-10-18T16:55:58.235Z,101611.47
2022-10-18T16:58:27.859Z,101619.50
2022-10-18T17:00:56.405Z,101616.44
2022-10-18T17:03:24.763Z,101617.28
2022-10-18T17:05:56.133Z,101616.75
2022-10-18T17:08:25.486Z,101627.00
2022-10-18T17:10:55.898Z,101631.09
2022-10-18T17:13:24.967Z,101632.47
2022-10-18T17:15:53.679Z,101638.09
2022-10-18T17:18:26.271Z,101640.34
2022-10-18T17:20:56.501Z,101633.91
2022-10-18T17:23:24.429Z,101644.41
2022-10-18T17:26:04.887Z,101654.69
2022-10-18T17:28:35.378Z,101650.72
2022-10-18T17:31:03.409Z,101650.44
2022-10-18T17:33:31.304Z,101658.00
2022-10-18T17:36:03.047Z,101656.63
2022-10-18T17:38:35.136Z,101659.72
2022-10-18T17:41:10.219Z,101665.59
2022-10-18T17:43:41.489Z,101668.78
2022-10-18T17:46:09.459Z,101673.84
2022-10-18T17:48:37.264Z,101673.41
2022-10-18T17:51:09.801Z,101666.81
2022-10-18T17:53:37.927Z,101671.56
2022-10-18T17:56:07.638Z,101673.66
2022-10-18T17:58:35.810Z,101672.19
2022-10-18T18:01:11.078Z,101665.59
2022-10-18T18:03:41.513Z,101668.66
2022-10-18T18:06:16.137Z,101672.69
2022-10-18T18:08:44.149Z,101671.16
2022-10-18T18:11:11.905Z,101671.53
2022-10-18T18:13:40.038Z,101669.44
2022-10-18T18:16:12.908Z,101669.69
2022-10-18T18:18:40.837Z,101678.66
2022-10-18T18:21:08.687Z,101665.47
2022-10-18T18:23:38.000Z,101670.94
2022-10-18T18:26:06.284Z,101670.38
2022-10-18T18:28:34.646Z,101662.63
2022-10-18T18:31:06.755Z,101661.22
2022-10-18T18:33:35.002Z,101668.47
2022-10-18T18:36:04.712Z,101666.09
2022-10-18T18:38:38.236Z,101664.13
2022-10-18T18:41:10.652Z,101664.13
2022-10-18T18:43:42.663Z,101666.09
2022-10-18T18:46:12.589Z,101665.38
2022-10-18T18:48:41.739Z,101671.94
2022-10-18T18:51:13.405Z,101668.81
2022-10-18T18:53:42.054Z,101670.78
2022-10-18T18:56:13.900Z,101668.50
2022-10-18T18:58:44.020Z,101664.28
2022-10-18T19:01:14.811Z,101663.97
2022-10-18T19:03:42.954Z,101669.53
2022-10-18T19:06:13.026Z,101670.53
2022-10-18T19:08:41.659Z,101669.69
2022-10-18T19:11:13.095Z,101667.97
2022-10-18T19:13:41.023Z,101676.94
2022-10-18T19:16:20.196Z,101664.75
2022-10-18T19:18:52.983Z,101667.56
2022-10-18T19:21:21.539Z,101668.53
2022-10-18T19:23:50.060Z,101675.94
2022-10-18T19:26:32.050Z,101675.94
2022-10-18T19:29:07.407Z,101679.81
2022-10-18T19:31:36.217Z,101679.81
2022-10-18T19:34:08.648Z,101680.66
2022-10-18T19:36:37.486Z,101683.16
2022-10-18T19:39:06.861Z,101678.72
2022-10-18T19:41:36.090Z,101676.03
2022-10-18T19:44:04.073Z,101678.72
2022-10-18T19:46:32.187Z,101673.38
2022-10-18T19:48:59.924Z,101669.03
2022-10-18T19:51:28.476Z,101669.03
2022-10-18T19:53:57.658Z,101664.69
2022-10-18T19:56:29.798Z,101667.34
2022-10-18T19:58:59.836Z,101664.69
2022-10-18T20:01:29.268Z,101669.88
2022-10-18T20:03:57.744Z,101664.41
2022-10-18T20:06:25.506Z,101673.38
2022-10-18T20:08:56.270Z,101671.44
2022-10-18T20:11:27.031Z,101673.09
2022-10-18T20:13:55.341Z,101667.78
2022-10-18T20:16:28.417Z,101670.84
2022-10-18T20:18:58.145Z,101680.38
2022-10-18T20:21:27.253Z,101677.59
2022-10-18T20:23:57.521Z,101678.44
2022-10-18T20:26:25.667Z,101683.75
2022-10-18T20:28:58.319Z,101681.81
2022-10-18T20:31:30.203Z,101680.00
2022-10-18T20:34:05.518Z,101677.22
2022-10-18T20:36:34.038Z,101685.19
2022-10-18T20:39:01.981Z,101672.59
2022-10-18T20:41:31.454Z,101685.19
2022-10-18T20:44:00.556Z,101686.03
2022-10-18T20:46:32.151Z,101680.84
2022-10-18T20:49:00.437Z,101678.31
2022-10-18T20:51:28.773Z,101674.78
2022-10-18T20:53:57.210Z,101675.06
2022-10-18T20:56:26.561Z,101671.69
2022-10-18T20:58:57.112Z,101673.59
2022-10-18T21:01:27.262Z,101676.53
2022-10-18T21:03:58.467Z,101676.22
2022-10-18T21:06:28.570Z,101686.38
2022-10-18T21:08:58.674Z,101685.78
2022-10-18T21:11:27.656Z,101677.22
2022-10-18T21:13:58.889Z,101687.00
2022-10-18T21:16:26.937Z,101676.63
2022-10-18T21:19:03.078Z,101683.91
2022-10-18T21:21:30.968Z,101684.25
2022-10-18T21:24:02.416Z,101688.28
2022-10-18T21:26:36.053Z,101689.50
2022-10-18T21:29:05.072Z,101694.94
2022-10-18T21:31:34.825Z,101690.59
2022-10-18T21:34:05.876Z,101687.09
2022-10-18T21:36:35.483Z,101690.34
2022-10-18T21:39:03.861Z,101688.28
2022-10-18T21:41:31.997Z,101686.31
2022-10-18T21:44:00.085Z,101679.91
2022-10-18T21:46:28.010Z,101677.13
2022-10-18T21:48:57.879Z,101671.69
2022-10-18T21:51:28.682Z,101674.09
2022-10-18T21:53:59.320Z,101671.31
2022-10-18T21:56:28.888Z,101662.94
2022-10-18T21:58:59.869Z,101662.56
2022-10-18T22:01:29.894Z,101666.66
2022-10-18T22:03:57.909Z,101663.59
2022-10-18T22:06:32.228Z,101664.19
2022-10-18T22:09:02.293Z,101660.44
2022-10-18T22:11:32.146Z,101657.63
2022-10-18T22:14:00.036Z,101667.19
2022-10-18T22:16:28.305Z,101661.63
2022-10-18T22:18:59.087Z,101661.50
2022-10-18T22:21:29.094Z,101660.28
2022-10-18T22:23:58.489Z,101661.97
2022-10-18T22:26:27.818Z,101660.97
2022-10-18T22:28:57.365Z,101660.84
2022-10-18T22:31:30.334Z,101657.59
2022-10-18T22:34:01.302Z,101660.28
2022-10-18T22:36:30.997Z,101667.97
2022-10-18T22:38:59.092Z,101663.41
2022-10-18T22:41:27.309Z,101663.50
2022-10-18T22:43:57.395Z,101670.13
2022-10-18T22:46:30.429Z,101664.81
2022-10-18T22:48:58.265Z,101663.81
2022-10-18T22:51:29.719Z,101654.16
2022-10-18T22:53:57.658Z,101651.50
2022-10-18T22:56:25.870Z,101653.19
2022-10-18T22:58:53.745Z,101654.03
2022-10-18T23:01:23.280Z,101651.38
2022-10-18T23:03:54.844Z,101652.22
2022-10-18T23:06:25.104Z,101643.28
2022-10-18T23:08:56.195Z,101644.94
2022-10-18T23:11:24.830Z,101636.00
2022-10-18T23:13:55.000Z,101639.50
2022-10-18T23:16:23.330Z,101656.19
2022-10-18T23:18:52.237Z,101654.50
2022-10-18T23:21:20.762Z,101655.19
2022-10-18T23:23:51.964Z,101662.31
2022-10-18T23:26:22.873Z,101651.84
2022-10-18T23:28:52.256Z,101660.53
2022-10-18T23:31:22.420Z,101665.00
2022-10-18T23:33:52.524Z,101662.47
2022-10-18T23:36:20.599Z,101657.56
2022-10-18T23:38:48.326Z,101660.34
2022-10-18T23:41:17.443Z,101665.91
2022-10-18T23:43:46.975Z,101669.41
2022-10-18T23:46:16.020Z,101669.69
2022-10-18T23:48:44.206Z,101667.84
2022-10-18T23:51:12.211Z,101668.84
2022-10-18T23:53:39.990Z,101670.66
2022-10-18T23:56:10.324Z,101666.28
2022-10-18T23:58:39.015Z,101664.50
